sensor_id;sensor_type;location;lat;lon;timestamp;temperature;humidity
29281;DHT22;25048;49.590;11.026;2024-03-08T00:00:12;0.70;99.90
29281;DHT22;25048;49.590;11.026;2024-03-08T00:02:40;0.60;99.90
29281;DHT22;25048;49.590;11.026;2024-03-08T00:05:09;0.60;99.90
29281;DHT22;25048;49.590;11.026;2024-03-08T00:07:41;0.50;99.90
29281;DHT22;25048;49.590;11.026;2024-03-08T00:10:10;0.50;99.90
29281;DHT22;25048;49.590;11.026;2024-03-08T00:12:43;0.50;99.90
29281;DHT22;25048;49.590;11.026;2024-03-08T00:15:12;0.50;99.90
29281;DHT22;25048;49.590;11.026;2024-03-08T00:17:41;0.50;99.90
29281;DHT22;25048;49.590;11.026;2024-03-08T00:20:10;0.40;99.90
29281;DHT22;25048;49.590;11.026;2024-03-08T00:22:39;0.40;99.90
29281;DHT22;25048;49.590;11.026;2024-03-08T00:25:07;0.40;99.90
29281;DHT22;25048;49.590;11.026;2024-03-08T00:27:41;0.40;99.90
29281;DHT22;25048;49.590;11.026;2024-03-08T00:30:09;0.40;99.90
29281;DHT22;25048;49.590;11.026;2024-03-08T00:32:37;0.40;99.90
29281;DHT22;25048;49.590;11.026;2024-03-08T00:35:05;0.30;99.90
29281;DHT22;25048;49.590;11.026;2024-03-08T00:37:34;0.30;99.90
29281;DHT22;25048;49.590;11.026;2024-03-08T00:40:02;0.40;99.90
29281;DHT22;25048;49.590;11.026;2024-03-08T00:42:29;0.40;99.90
29281;DHT22;25048;49.590;11.026;2024-03-08T00:44:57;0.40;99.90
29281;DHT22;25048;49.590;11.026;2024-03-08T00:47:24;0.50;99.90
29281;DHT22;25048;49.590;11.026;2024-03-08T00:49:52;0.50;99.90
29281;DHT22;25048;49.590;11.026;2024-03-08T00:52:22;0.50;99.90
29281;DHT22;25048;49.590;11.026;2024-03-08T00:54:50;0.50;99.90
29281;DHT22;25048;49.590;11.026;2024-03-08T00:57:18;0.50;99.90
29281;DHT22;25048;49.590;11.026;2024-03-08T00:59:45;0.50;99.90
29281;DHT22;25048;49.590;11.026;2024-03-08T01:02:13;0.50;99.90
29281;DHT22;25048;49.590;11.026;2024-03-08T01:04:41;0.50;99.90
29281;DHT22;25048;49.590;11.026;2024-03-08T01:07:08;0.50;99.90
29281;DHT22;25048;49.590;11.026;2024-03-08T01:09:36;0.50;99.90
29281;DHT22;25048;49.590;11.026;2024-03-08T01:12:03;0.50;99.90
29281;DHT22;25048;49.590;11.026;2024-03-08T01:14:33;0.60;99.90
29281;DHT22;25048;49.590;11.026;2024-03-08T01:17:01;0.60;99.90
29281;DHT22;25048;49.590;11.026;2024-03-08T01:19:28;0.70;99.90
29281;DHT22;25048;49.590;11.026;2024-03-08T01:21:58;0.70;99.90
29281;DHT22;25048;49.590;11.026;2024-03-08T01:24:25;0.70;99.90
29281;DHT22;25048;49.590;11.026;2024-03-08T01:26:53;0.70;99.90
29281;DHT22;25048;49.590;11.026;2024-03-08T01:29:20;0.60;99.90
29281;DHT22;25048;49.590;11.026;2024-03-08T01:31:49;0.70;99.90
29281;DHT22;25048;49.590;11.026;2024-03-08T01:34:18;0.70;99.90
29281;DHT22;25048;49.590;11.026;2024-03-08T01:36:45;0.70;99.90
29281;DHT22;25048;49.590;11.026;2024-03-08T01:39:13;0.60;99.90
29281;DHT22;25048;49.590;11.026;2024-03-08T01:41:40;0.70;99.90
29281;DHT22;25048;49.590;11.026;2024-03-08T01:44:08;0.70;99.90
29281;DHT22;25048;49.590;11.026;2024-03-08T01:46:36;0.70;99.90
29281;DHT22;25048;49.590;11.026;2024-03-08T01:49:03;0.60;99.90
29281;DHT22;25048;49.590;11.026;2024-03-08T01:51:31;0.60;99.90
29281;DHT22;25048;49.590;11.026;2024-03-08T01:54:00;0.60;99.90
29281;DHT22;25048;49.590;11.026;2024-03-08T01:56:29;0.50;99.90
29281;DHT22;25048;49.590;11.026;2024-03-08T01:58:59;0.50;99.90
29281;DHT22;25048;49.590;11.026;2024-03-08T02:01:28;0.50;99.90
29281;DHT22;25048;49.590;11.026;2024-03-08T02:03:55;0.50;99.90
29281;DHT22;25048;49.590;11.026;2024-03-08T02:06:23;0.50;99.90
29281;DHT22;25048;49.590;11.026;2024-03-08T02:08:50;0.60;99.90
29281;DHT22;25048;49.590;11.026;2024-03-08T02:11:18;0.50;99.90
29281;DHT22;25048;49.590;11.026;2024-03-08T02:13:47;0.40;99.90
29281;DHT22;25048;49.590;11.026;2024-03-08T02:16:22;0.30;99.90
29281;DHT22;25048;49.590;11.026;2024-03-08T02:18:49;0.30;99.90
29281;DHT22;25048;49.590;11.026;2024-03-08T02:21:18;0.20;99.90
29281;DHT22;25048;49.590;11.026;2024-03-08T02:23:46;0.10;99.90
29281;DHT22;25048;49.590;11.026;2024-03-08T02:26:14;0.10;99.90
29281;DHT22;25048;49.590;11.026;2024-03-08T02:28:43;0.10;99.90
29281;DHT22;25048;49.590;11.026;2024-03-08T02:31:10;0.00;99.90
29281;DHT22;25048;49.590;11.026;2024-03-08T02:33:38;0.00;99.90
29281;DHT22;25048;49.590;11.026;2024-03-08T02:36:06;-0.10;99.90
29281;DHT22;25048;49.590;11.026;2024-03-08T02:38:34;-0.10;99.90
29281;DHT22;25048;49.590;11.026;2024-03-08T02:41:02;-0.20;99.90
29281;DHT22;25048;49.590;11.026;2024-03-08T02:43:30;-0.20;99.90
29281;DHT22;25048;49.590;11.026;2024-03-08T02:45:57;-0.10;99.90
29281;DHT22;25048;49.590;11.026;2024-03-08T02:48:26;-0.10;99.90
29281;DHT22;25048;49.590;11.026;2024-03-08T02:50:53;0.00;99.90
29281;DHT22;25048;49.590;11.026;2024-03-08T02:53:21;-0.10;99.90
29281;DHT22;25048;49.590;11.026;2024-03-08T02:55:48;-0.10;99.90
29281;DHT22;25048;49.590;11.026;2024-03-08T02:58:16;-0.10;99.90
29281;DHT22;25048;49.590;11.026;2024-03-08T03:00:45;-0.10;99.90
29281;DHT22;25048;49.590;11.026;2024-03-08T03:03:12;-0.10;99.90
29281;DHT22;25048;49.590;11.026;2024-03-08T03:05:40;-0.10;99.90
29281;DHT22;25048;49.590;11.026;2024-03-08T03:08:10;-0.10;99.90
29281;DHT22;25048;49.590;11.026;2024-03-08T03:10:39;-0.10;99.90
29281;DHT22;25048;49.590;11.026;2024-03-08T03:13:07;-0.10;99.90
29281;DHT22;25048;49.590;11.026;2024-03-08T03:15:35;-0.20;99.90
29281;DHT22;25048;49.590;11.026;2024-03-08T03:18:03;-0.10;99.90
29281;DHT22;25048;49.590;11.026;2024-03-08T03:20:32;-0.10;99.90
29281;DHT22;25048;49.590;11.026;2024-03-08T03:22:59;-0.20;99.90
29281;DHT22;25048;49.590;11.026;2024-03-08T03:25:29;-0.30;99.90
29281;DHT22;25048;49.590;11.026;2024-03-08T03:27:58;-0.40;99.90
29281;DHT22;25048;49.590;11.026;2024-03-08T03:30:26;-0.40;99.90
29281;DHT22;25048;49.590;11.026;2024-03-08T03:32:55;-0.50;99.90
29281;DHT22;25048;49.590;11.026;2024-03-08T03:35:24;-0.50;99.90
29281;DHT22;25048;49.590;11.026;2024-03-08T03:37:52;-0.50;99.90
29281;DHT22;25048;49.590;11.026;2024-03-08T03:40:31;-0.60;99.90
29281;DHT22;25048;49.590;11.026;2024-03-08T03:42:58;-0.60;99.90
29281;DHT22;25048;49.590;11.026;2024-03-08T03:45:26;-0.60;99.90
29281;DHT22;25048;49.590;11.026;2024-03-08T03:47:54;-0.50;99.90
29281;DHT22;25048;49.590;11.026;2024-03-08T03:50:22;-0.50;99.90
29281;DHT22;25048;49.590;11.026;2024-03-08T03:52:50;-0.50;99.90
29281;DHT22;25048;49.590;11.026;2024-03-08T03:55:17;-0.50;99.90
29281;DHT22;25048;49.590;11.026;2024-03-08T03:57:46;-0.60;99.90
29281;DHT22;25048;49.590;11.026;2024-03-08T04:00:14;-0.60;99.90
29281;DHT22;25048;49.590;11.026;2024-03-08T04:02:42;-0.60;99.90
29281;DHT22;25048;49.590;11.026;2024-03-08T04:05:10;-0.60;99.90
29281;DHT22;25048;49.590;11.026;2024-03-08T04:07:38;-0.60;99.90
29281;DHT22;25048;49.590;11.026;2024-03-08T04:10:08;-0.70;99.90
29281;DHT22;25048;49.590;11.026;2024-03-08T04:12:36;-0.70;99.90
29281;DHT22;25048;49.590;11.026;2024-03-08T04:15:04;-0.60;99.90
29281;DHT22;25048;49.590;11.026;2024-03-08T04:17:34;-0.70;99.90
29281;DHT22;25048;49.590;11.026;2024-03-08T04:20:05;-0.70;99.90
29281;DHT22;25048;49.590;11.026;2024-03-08T04:22:40;-0.70;99.90
29281;DHT22;25048;49.590;11.026;2024-03-08T04:25:09;-0.70;99.90
29281;DHT22;25048;49.590;11.026;2024-03-08T04:27:37;-0.70;99.90
29281;DHT22;25048;49.590;11.026;2024-03-08T04:30:05;-0.70;99.90
29281;DHT22;25048;49.590;11.026;2024-03-08T04:32:36;-0.70;99.90
29281;DHT22;25048;49.590;11.026;2024-03-08T04:35:04;-0.60;99.90
29281;DHT22;25048;49.590;11.026;2024-03-08T04:37:32;-0.60;99.90
29281;DHT22;25048;49.590;11.026;2024-03-08T04:39:59;-0.60;99.90
29281;DHT22;25048;49.590;11.026;2024-03-08T04:42:30;-0.70;99.90
29281;DHT22;25048;49.590;11.026;2024-03-08T04:45:00;-0.70;99.90
29281;DHT22;25048;49.590;11.026;2024-03-08T04:47:28;-0.70;99.90
29281;DHT22;25048;49.590;11.026;2024-03-08T04:49:56;-0.80;99.90
29281;DHT22;25048;49.590;11.026;2024-03-08T04:52:24;-0.80;99.90
29281;DHT22;25048;49.590;11.026;2024-03-08T04:54:52;-0.90;99.90
29281;DHT22;25048;49.590;11.026;2024-03-08T04:57:20;-0.90;99.90
29281;DHT22;25048;49.590;11.026;2024-03-08T04:59:47;-1.00;99.90
29281;DHT22;25048;49.590;11.026;2024-03-08T05:02:15;-1.00;99.90
29281;DHT22;25048;49.590;11.026;2024-03-08T05:04:43;-1.10;99.90
29281;DHT22;25048;49.590;11.026;2024-03-08T05:07:11;-1.20;99.90
29281;DHT22;25048;49.590;11.026;2024-03-08T05:09:39;-1.10;99.90
29281;DHT22;25048;49.590;11.026;2024-03-08T05:12:07;-1.20;99.90
29281;DHT22;25048;49.590;11.026;2024-03-08T05:14:35;-1.20;99.90
29281;DHT22;25048;49.590;11.026;2024-03-08T05:17:02;-1.30;99.90
29281;DHT22;25048;49.590;11.026;2024-03-08T05:19:32;-1.30;99.90
29281;DHT22;25048;49.590;11.026;2024-03-08T05:22:00;-1.40;99.90
29281;DHT22;25048;49.590;11.026;2024-03-08T05:24:28;-1.40;99.90
29281;DHT22;25048;49.590;11.026;2024-03-08T05:26:56;-1.50;99.90
29281;DHT22;25048;49.590;11.026;2024-03-08T05:29:26;-1.50;99.90
29281;DHT22;25048;49.590;11.026;2024-03-08T05:31:53;-1.60;99.90
29281;DHT22;25048;49.590;11.026;2024-03-08T05:34:21;-1.60;99.90
29281;DHT22;25048;49.590;11.026;2024-03-08T05:36:49;-1.70;99.90
29281;DHT22;25048;49.590;11.026;2024-03-08T05:39:18;-1.70;99.90
29281;DHT22;25048;49.590;11.026;2024-03-08T05:41:46;-1.70;99.90
29281;DHT22;25048;49.590;11.026;2024-03-08T05:44:14;-1.70;99.90
29281;DHT22;25048;49.590;11.026;2024-03-08T05:46:43;-1.70;99.90
29281;DHT22;25048;49.590;11.026;2024-03-08T05:49:11;-1.70;99.90
29281;DHT22;25048;49.590;11.026;2024-03-08T05:51:40;-1.80;99.90
29281;DHT22;25048;49.590;11.026;2024-03-08T05:54:09;-1.80;99.90
29281;DHT22;25048;49.590;11.026;2024-03-08T05:56:38;-1.80;99.90
29281;DHT22;25048;49.590;11.026;2024-03-08T05:59:08;-1.70;99.90
29281;DHT22;25048;49.590;11.026;2024-03-08T06:01:36;-1.70;99.90
29281;DHT22;25048;49.590;11.026;2024-03-08T06:04:04;-1.70;99.90
29281;DHT22;25048;49.590;11.026;2024-03-08T06:06:32;-1.60;99.90
29281;DHT22;25048;49.590;11.026;2024-03-08T06:08:59;-1.50;99.90
29281;DHT22;25048;49.590;11.026;2024-03-08T06:11:29;-1.50;99.90
29281;DHT22;25048;49.590;11.026;2024-03-08T06:13:58;-1.40;99.90
29281;DHT22;25048;49.590;11.026;2024-03-08T06:16:27;-1.30;99.90
29281;DHT22;25048;49.590;11.026;2024-03-08T06:18:56;-1.30;99.90
29281;DHT22;25048;49.590;11.026;2024-03-08T06:21:24;-1.10;99.90
29281;DHT22;25048;49.590;11.026;2024-03-08T06:23:55;-1.00;99.90
29281;DHT22;25048;49.590;11.026;2024-03-08T06:26:24;-0.80;99.90
29281;DHT22;25048;49.590;11.026;2024-03-08T06:28:54;-0.70;99.90
29281;DHT22;25048;49.590;11.026;2024-03-08T06:31:22;-0.60;99.90
29281;DHT22;25048;49.590;11.026;2024-03-08T06:33:49;-0.50;99.90
29281;DHT22;25048;49.590;11.026;2024-03-08T06:36:17;-0.40;99.90
29281;DHT22;25048;49.590;11.026;2024-03-08T06:38:51;-0.30;99.90
29281;DHT22;25048;49.590;11.026;2024-03-08T06:41:18;-0.10;99.90
29281;DHT22;25048;49.590;11.026;2024-03-08T06:43:47;0.00;99.90
29281;DHT22;25048;49.590;11.026;2024-03-08T06:46:17;0.10;99.90
29281;DHT22;25048;49.590;11.026;2024-03-08T06:48:46;0.30;99.90
29281;DHT22;25048;49.590;11.026;2024-03-08T06:51:14;0.40;99.90
29281;DHT22;25048;49.590;11.026;2024-03-08T06:53:42;0.60;99.90
29281;DHT22;25048;49.590;11.026;2024-03-08T06:56:09;0.70;99.90
29281;DHT22;25048;49.590;11.026;2024-03-08T06:58:37;0.80;99.90
29281;DHT22;25048;49.590;11.026;2024-03-08T07:01:04;0.90;99.90
29281;DHT22;25048;49.590;11.026;2024-03-08T07:03:34;1.00;99.90
29281;DHT22;25048;49.590;11.026;2024-03-08T07:06:01;1.20;99.90
29281;DHT22;25048;49.590;11.026;2024-03-08T07:08:29;1.30;99.90
29281;DHT22;25048;49.590;11.026;2024-03-08T07:10:56;1.40;99.90
29281;DHT22;25048;49.590;11.026;2024-03-08T07:13:24;1.50;99.90
29281;DHT22;25048;49.590;11.026;2024-03-08T07:15:53;1.60;99.90
29281;DHT22;25048;49.590;11.026;2024-03-08T07:18:21;1.70;99.90
29281;DHT22;25048;49.590;11.026;2024-03-08T07:20:49;1.90;99.90
29281;DHT22;25048;49.590;11.026;2024-03-08T07:23:17;2.00;99.90
29281;DHT22;25048;49.590;11.026;2024-03-08T07:26:02;2.10;99.90
29281;DHT22;25048;49.590;11.026;2024-03-08T07:28:29;2.30;99.90
29281;DHT22;25048;49.590;11.026;2024-03-08T07:30:58;2.40;99.90
29281;DHT22;25048;49.590;11.026;2024-03-08T07:33:30;2.50;99.90
29281;DHT22;25048;49.590;11.026;2024-03-08T07:35:57;2.60;99.90
29281;DHT22;25048;49.590;11.026;2024-03-08T07:38:25;2.60;99.90
29281;DHT22;25048;49.590;11.026;2024-03-08T07:40:52;2.80;99.90
29281;DHT22;25048;49.590;11.026;2024-03-08T07:43:20;2.90;99.90
29281;DHT22;25048;49.590;11.026;2024-03-08T07:45:48;3.00;99.90
29281;DHT22;25048;49.590;11.026;2024-03-08T07:48:17;3.10;99.90
29281;DHT22;25048;49.590;11.026;2024-03-08T07:50:45;3.20;99.90
29281;DHT22;25048;49.590;11.026;2024-03-08T07:53:12;3.30;99.90
29281;DHT22;25048;49.590;11.026;2024-03-08T07:55:40;3.40;99.90
29281;DHT22;25048;49.590;11.026;2024-03-08T07:58:09;3.50;99.90
29281;DHT22;25048;49.590;11.026;2024-03-08T08:00:37;3.60;99.90
29281;DHT22;25048;49.590;11.026;2024-03-08T08:03:05;3.70;99.90
29281;DHT22;25048;49.590;11.026;2024-03-08T08:05:34;3.70;99.90
29281;DHT22;25048;49.590;11.026;2024-03-08T08:08:02;3.80;99.90
29281;DHT22;25048;49.590;11.026;2024-03-08T08:10:32;3.90;99.90
29281;DHT22;25048;49.590;11.026;2024-03-08T08:12:59;4.00;99.90
29281;DHT22;25048;49.590;11.026;2024-03-08T08:15:27;4.10;99.90
29281;DHT22;25048;49.590;11.026;2024-03-08T08:17:55;4.20;99.90
29281;DHT22;25048;49.590;11.026;2024-03-08T08:20:22;4.20;99.90
29281;DHT22;25048;49.590;11.026;2024-03-08T08:22:50;4.30;99.90
29281;DHT22;25048;49.590;11.026;2024-03-08T08:25:17;4.30;99.90
29281;DHT22;25048;49.590;11.026;2024-03-08T08:27:47;4.50;99.90
29281;DHT22;25048;49.590;11.026;2024-03-08T08:30:14;4.60;99.90
29281;DHT22;25048;49.590;11.026;2024-03-08T08:32:42;4.60;99.90
29281;DHT22;25048;49.590;11.026;2024-03-08T08:35:10;4.70;99.90
29281;DHT22;25048;49.590;11.026;2024-03-08T08:37:42;4.80;99.90
29281;DHT22;25048;49.590;11.026;2024-03-08T08:40:11;4.90;99.90
29281;DHT22;25048;49.590;11.026;2024-03-08T08:42:40;5.00;99.90
29281;DHT22;25048;49.590;11.026;2024-03-08T08:45:08;5.10;99.90
29281;DHT22;25048;49.590;11.026;2024-03-08T08:47:37;5.30;99.90
29281;DHT22;25048;49.590;11.026;2024-03-08T08:50:05;5.40;99.90
29281;DHT22;25048;49.590;11.026;2024-03-08T08:52:32;5.50;99.90
29281;DHT22;25048;49.590;11.026;2024-03-08T08:55:01;5.70;99.90
29281;DHT22;25048;49.590;11.026;2024-03-08T08:57:30;5.80;99.90
29281;DHT22;25048;49.590;11.026;2024-03-08T08:59:59;5.90;99.90
29281;DHT22;25048;49.590;11.026;2024-03-08T09:02:27;6.00;99.90
29281;DHT22;25048;49.590;11.026;2024-03-08T09:04:55;6.10;99.90
29281;DHT22;25048;49.590;11.026;2024-03-08T09:07:23;6.00;99.90
29281;DHT22;25048;49.590;11.026;2024-03-08T09:09:50;6.10;99.90
29281;DHT22;25048;49.590;11.026;2024-03-08T09:12:18;6.20;99.90
29281;DHT22;25048;49.590;11.026;2024-03-08T09:14:46;6.40;99.90
29281;DHT22;25048;49.590;11.026;2024-03-08T09:17:14;6.50;99.90
29281;DHT22;25048;49.590;11.026;2024-03-08T09:19:44;6.50;99.90
29281;DHT22;25048;49.590;11.026;2024-03-08T09:22:11;6.60;99.90
29281;DHT22;25048;49.590;11.026;2024-03-08T09:24:39;6.60;99.90
29281;DHT22;25048;49.590;11.026;2024-03-08T09:27:07;6.80;99.90
29281;DHT22;25048;49.590;11.026;2024-03-08T09:29:36;6.90;99.90
29281;DHT22;25048;49.590;11.026;2024-03-08T09:32:03;7.10;99.90
29281;DHT22;25048;49.590;11.026;2024-03-08T09:34:31;7.10;99.90
29281;DHT22;25048;49.590;11.026;2024-03-08T09:36:59;7.20;99.90
29281;DHT22;25048;49.590;11.026;2024-03-08T09:39:26;7.40;99.90
29281;DHT22;25048;49.590;11.026;2024-03-08T09:41:54;7.50;99.90
29281;DHT22;25048;49.590;11.026;2024-03-08T09:44:23;7.60;99.90
29281;DHT22;25048;49.590;11.026;2024-03-08T09:46:51;7.80;99.90
29281;DHT22;25048;49.590;11.026;2024-03-08T09:49:20;7.80;99.90
29281;DHT22;25048;49.590;11.026;2024-03-08T09:51:48;7.80;99.90
29281;DHT22;25048;49.590;11.026;2024-03-08T09:54:18;7.80;99.90
29281;DHT22;25048;49.590;11.026;2024-03-08T09:56:47;7.70;99.90
29281;DHT22;25048;49.590;11.026;2024-03-08T09:59:16;7.80;99.90
29281;DHT22;25048;49.590;11.026;2024-03-08T10:01:51;7.90;99.90
29281;DHT22;25048;49.590;11.026;2024-03-08T10:04:21;7.90;99.90
29281;DHT22;25048;49.590;11.026;2024-03-08T10:06:49;8.10;99.90
29281;DHT22;25048;49.590;11.026;2024-03-08T10:09:16;8.20;99.90
29281;DHT22;25048;49.590;11.026;2024-03-08T10:11:45;8.40;99.90
29281;DHT22;25048;49.590;11.026;2024-03-08T10:14:13;8.60;99.90
29281;DHT22;25048;49.590;11.026;2024-03-08T10:16:41;8.90;99.90
29281;DHT22;25048;49.590;11.026;2024-03-08T10:19:08;9.00;99.90
29281;DHT22;25048;49.590;11.026;2024-03-08T10:21:48;9.10;99.90
29281;DHT22;25048;49.590;11.026;2024-03-08T10:24:16;9.20;99.90
29281;DHT22;25048;49.590;11.026;2024-03-08T10:26:44;9.40;99.90
29281;DHT22;25048;49.590;11.026;2024-03-08T10:29:13;9.40;99.90
29281;DHT22;25048;49.590;11.026;2024-03-08T10:31:45;9.60;99.90
29281;DHT22;25048;49.590;11.026;2024-03-08T10:34:12;9.80;99.90
29281;DHT22;25048;49.590;11.026;2024-03-08T10:36:40;9.90;99.90
29281;DHT22;25048;49.590;11.026;2024-03-08T10:39:20;10.00;99.90
29281;DHT22;25048;49.590;11.026;2024-03-08T10:41:43;9.90;99.90
29281;DHT22;25048;49.590;11.026;2024-03-08T10:45:20;10.00;99.90
29281;DHT22;25048;49.590;11.026;2024-03-08T10:47:39;10.20;99.90
29281;DHT22;25048;49.590;11.026;2024-03-08T10:49:46;10.30;99.90
29281;DHT22;25048;49.590;11.026;2024-03-08T10:52:12;10.10;99.90
29281;DHT22;25048;49.590;11.026;2024-03-08T10:54:40;10.20;99.90
29281;DHT22;25048;49.590;11.026;2024-03-08T10:57:10;10.30;99.90
29281;DHT22;25048;49.590;11.026;2024-03-08T10:59:39;10.60;99.90
29281;DHT22;25048;49.590;11.026;2024-03-08T11:02:11;10.80;99.90
29281;DHT22;25048;49.590;11.026;2024-03-08T11:04:38;10.80;99.90
29281;DHT22;25048;49.590;11.026;2024-03-08T11:07:07;10.80;99.90
29281;DHT22;25048;49.590;11.026;2024-03-08T11:09:37;10.70;99.90
29281;DHT22;25048;49.590;11.026;2024-03-08T11:12:26;10.80;99.90
29281;DHT22;25048;49.590;11.026;2024-03-08T11:15:09;11.20;99.90
29281;DHT22;25048;49.590;11.026;2024-03-08T11:22:54;12.00;99.90
29281;DHT22;25048;49.590;11.026;2024-03-08T11:25:33;12.10;99.90
29281;DHT22;25048;49.590;11.026;2024-03-08T11:28:17;12.10;99.90
29281;DHT22;25048;49.590;11.026;2024-03-08T11:33:29;11.70;99.90
29281;DHT22;25048;49.590;11.026;2024-03-08T11:36:13;11.80;99.90
29281;DHT22;25048;49.590;11.026;2024-03-08T11:38:44;11.80;99.90
29281;DHT22;25048;49.590;11.026;2024-03-08T11:41:14;12.00;99.90
29281;DHT22;25048;49.590;11.026;2024-03-08T11:43:42;11.80;99.90
29281;DHT22;25048;49.590;11.026;2024-03-08T11:46:10;11.90;99.90
29281;DHT22;25048;49.590;11.026;2024-03-08T11:48:40;12.00;99.90
29281;DHT22;25048;49.590;11.026;2024-03-08T11:51:12;12.10;99.90
29281;DHT22;25048;49.590;11.026;2024-03-08T11:53:40;12.10;99.90
29281;DHT22;25048;49.590;11.026;2024-03-08T11:56:13;12.10;99.90
29281;DHT22;25048;49.590;11.026;2024-03-08T11:58:41;12.00;99.90
29281;DHT22;25048;49.590;11.026;2024-03-08T12:01:12;12.00;99.90
29281;DHT22;25048;49.590;11.026;2024-03-08T12:03:40;11.90;99.90
29281;DHT22;25048;49.590;11.026;2024-03-08T12:06:10;12.20;99.90
29281;DHT22;25048;49.590;11.026;2024-03-08T12:08:40;12.50;99.90
29281;DHT22;25048;49.590;11.026;2024-03-08T12:11:07;12.70;99.90
29281;DHT22;25048;49.590;11.026;2024-03-08T12:13:36;12.60;99.90
29281;DHT22;25048;49.590;11.026;2024-03-08T12:16:04;12.50;99.90
29281;DHT22;25048;49.590;11.026;2024-03-08T12:18:35;12.50;99.90
29281;DHT22;25048;49.590;11.026;2024-03-08T12:21:11;12.60;99.90
29281;DHT22;25048;49.590;11.026;2024-03-08T12:23:40;12.70;99.90
29281;DHT22;25048;49.590;11.026;2024-03-08T12:26:13;12.80;99.90
29281;DHT22;25048;49.590;11.026;2024-03-08T12:28:43;13.00;99.90
29281;DHT22;25048;49.590;11.026;2024-03-08T12:31:20;13.30;99.90
29281;DHT22;25048;49.590;11.026;2024-03-08T12:33:55;13.40;99.90
29281;DHT22;25048;49.590;11.026;2024-03-08T12:36:20;13.30;99.90
29281;DHT22;25048;49.590;11.026;2024-03-08T12:38:48;13.30;99.90
29281;DHT22;25048;49.590;11.026;2024-03-08T12:41:19;13.10;99.90
29281;DHT22;25048;49.590;11.026;2024-03-08T12:43:48;13.30;99.90
29281;DHT22;25048;49.590;11.026;2024-03-08T12:46:16;13.60;99.90
29281;DHT22;25048;49.590;11.026;2024-03-08T12:48:44;13.60;99.20
29281;DHT22;25048;49.590;11.026;2024-03-08T12:51:17;13.40;99.90
29281;DHT22;25048;49.590;11.026;2024-03-08T12:53:47;13.50;99.90
29281;DHT22;25048;49.590;11.026;2024-03-08T12:56:33;13.50;99.40
29281;DHT22;25048;49.590;11.026;2024-03-08T12:59:01;13.70;99.90
29281;DHT22;25048;49.590;11.026;2024-03-08T13:01:29;13.60;98.50
29281;DHT22;25048;49.590;11.026;2024-03-08T13:03:59;13.60;99.50
29281;DHT22;25048;49.590;11.026;2024-03-08T13:06:29;13.70;99.20
29281;DHT22;25048;49.590;11.026;2024-03-08T13:08:57;13.70;98.80
29281;DHT22;25048;49.590;11.026;2024-03-08T13:11:25;13.70;99.60
29281;DHT22;25048;49.590;11.026;2024-03-08T13:13:53;13.80;99.90
29281;DHT22;25048;49.590;11.026;2024-03-08T13:16:21;13.90;99.00
29281;DHT22;25048;49.590;11.026;2024-03-08T13:18:50;13.90;98.90
29281;DHT22;25048;49.590;11.026;2024-03-08T13:21:19;14.20;99.40
29281;DHT22;25048;49.590;11.026;2024-03-08T13:23:46;14.30;97.90
29281;DHT22;25048;49.590;11.026;2024-03-08T13:26:16;14.30;97.20
29281;DHT22;25048;49.590;11.026;2024-03-08T13:28:47;14.30;97.50
29281;DHT22;25048;49.590;11.026;2024-03-08T13:31:19;14.40;97.40
29281;DHT22;25048;49.590;11.026;2024-03-08T13:33:47;14.50;96.80
29281;DHT22;25048;49.590;11.026;2024-03-08T13:36:15;14.50;96.50
29281;DHT22;25048;49.590;11.026;2024-03-08T13:38:43;14.10;96.60
29281;DHT22;25048;49.590;11.026;2024-03-08T13:41:12;13.90;96.60
29281;DHT22;25048;49.590;11.026;2024-03-08T13:43:47;14.10;97.10
29281;DHT22;25048;49.590;11.026;2024-03-08T13:46:18;14.30;96.70
29281;DHT22;25048;49.590;11.026;2024-03-08T13:48:46;14.60;96.40
29281;DHT22;25048;49.590;11.026;2024-03-08T13:51:14;14.80;96.10
29281;DHT22;25048;49.590;11.026;2024-03-08T13:53:44;14.90;96.00
29281;DHT22;25048;49.590;11.026;2024-03-08T13:56:11;14.90;96.40
29281;DHT22;25048;49.590;11.026;2024-03-08T13:58:39;15.00;95.30
29281;DHT22;25048;49.590;11.026;2024-03-08T14:01:07;14.90;94.50
29281;DHT22;25048;49.590;11.026;2024-03-08T14:03:36;14.80;95.40
29281;DHT22;25048;49.590;11.026;2024-03-08T14:06:04;15.00;94.70
29281;DHT22;25048;49.590;11.026;2024-03-08T14:08:33;14.80;94.40
29281;DHT22;25048;49.590;11.026;2024-03-08T14:11:03;14.90;95.60
29281;DHT22;25048;49.590;11.026;2024-03-08T14:13:32;15.00;95.40
29281;DHT22;25048;49.590;11.026;2024-03-08T14:16:00;14.90;95.10
29281;DHT22;25048;49.590;11.026;2024-03-08T14:18:27;14.70;94.50
29281;DHT22;25048;49.590;11.026;2024-03-08T14:20:55;14.50;94.60
29281;DHT22;25048;49.590;11.026;2024-03-08T14:23:23;14.70;95.50
29281;DHT22;25048;49.590;11.026;2024-03-08T14:25:51;14.70;94.30
29281;DHT22;25048;49.590;11.026;2024-03-08T14:28:18;15.00;94.80
29281;DHT22;25048;49.590;11.026;2024-03-08T14:30:46;15.00;95.40
29281;DHT22;25048;49.590;11.026;2024-03-08T14:33:13;15.00;94.90
29281;DHT22;25048;49.590;11.026;2024-03-08T14:35:41;14.90;93.80
29281;DHT22;25048;49.590;11.026;2024-03-08T14:38:10;14.70;93.30
29281;DHT22;25048;49.590;11.026;2024-03-08T14:40:39;14.80;94.90
29281;DHT22;25048;49.590;11.026;2024-03-08T14:43:07;14.70;94.10
29281;DHT22;25048;49.590;11.026;2024-03-08T14:45:34;14.70;94.00
29281;DHT22;25048;49.590;11.026;2024-03-08T14:48:03;14.70;94.70
29281;DHT22;25048;49.590;11.026;2024-03-08T14:50:31;14.50;95.40
29281;DHT22;25048;49.590;11.026;2024-03-08T14:52:59;14.80;94.50
29281;DHT22;25048;49.590;11.026;2024-03-08T14:55:27;14.80;94.20
29281;DHT22;25048;49.590;11.026;2024-03-08T14:57:56;14.90;95.00
29281;DHT22;25048;49.590;11.026;2024-03-08T15:00:24;15.00;94.70
29281;DHT22;25048;49.590;11.026;2024-03-08T15:02:56;14.80;94.30
29281;DHT22;25048;49.590;11.026;2024-03-08T15:05:24;14.80;94.30
29281;DHT22;25048;49.590;11.026;2024-03-08T15:07:54;14.80;94.20
29281;DHT22;25048;49.590;11.026;2024-03-08T15:10:22;14.30;93.90
29281;DHT22;25048;49.590;11.026;2024-03-08T15:12:51;14.10;94.70
29281;DHT22;25048;49.590;11.026;2024-03-08T15:15:22;14.20;94.20
29281;DHT22;25048;49.590;11.026;2024-03-08T15:17:51;14.00;94.90
29281;DHT22;25048;49.590;11.026;2024-03-08T15:20:21;14.00;95.40
29281;DHT22;25048;49.590;11.026;2024-03-08T15:22:52;14.10;95.20
29281;DHT22;25048;49.590;11.026;2024-03-08T15:25:21;14.30;94.90
29281;DHT22;25048;49.590;11.026;2024-03-08T15:27:51;14.40;94.70
29281;DHT22;25048;49.590;11.026;2024-03-08T15:30:20;14.20;94.90
29281;DHT22;25048;49.590;11.026;2024-03-08T15:32:53;14.30;95.40
29281;DHT22;25048;49.590;11.026;2024-03-08T15:35:24;14.10;95.60
29281;DHT22;25048;49.590;11.026;2024-03-08T15:37:52;13.80;95.60
29281;DHT22;25048;49.590;11.026;2024-03-08T15:40:22;13.70;96.60